Time;durP1;ratioP1;P1;durP2;ratioP2;P2;SDS_P1;SDS_P2;PMS_P1;PMS_P2;Temp;Humidity;BMP_temperature;BMP_pressure;BME280_temperature;BME280_humidity;BME280_pressure;Samples;Min_cycle;Max_cycle;Signal;HPM_P1;HPM_P2
2023/02/19 00:00:35;;;;;;;77.12;61.70;;;24.20;89.90;;;;;;1790771;80;21236;-82
2023/02/19 00:03:07;;;;;;;74.62;53.73;;;24.20;89.70;;;;;;1791730;80;21176;-82
2023/02/19 00:05:38;;;;;;;76.02;52.53;;;24.20;89.40;;;;;;1788908;79;21231;-81
2023/02/19 00:08:09;;;;;;;65.72;51.88;;;24.20;88.90;;;;;;1793040;79;21497;-81
2023/02/19 00:10:40;;;;;;;62.70;46.63;;;24.20;88.80;;;;;;1727872;82;21274;-82
2023/02/19 00:13:11;;;;;;;56.23;45.55;;;24.30;88.30;;;;;;1700237;84;21305;-82
2023/02/19 00:15:42;;;;;;;63.52;47.95;;;24.30;87.90;;;;;;1774977;81;21181;-84
2023/02/19 00:18:13;;;;;;;62.38;46.58;;;24.40;87.90;;;;;;1799685;79;21942;-82
2023/02/19 00:20:44;;;;;;;60.67;43.48;;;24.40;87.60;;;;;;1803527;79;21187;-82
2023/02/19 00:23:15;;;;;;;54.35;41.73;;;24.40;87.10;;;;;;1719282;80;22182;-83
2023/02/19 00:25:46;;;;;;;60.23;46.75;;;24.40;86.70;;;;;;1820191;79;21993;-83
2023/02/19 00:28:18;;;;;;;59.13;44.40;;;24.50;86.30;;;;;;1820526;79;21901;-83
2023/02/19 00:30:49;;;;;;;56.13;39.53;;;24.50;85.90;;;;;;1815796;79;21272;-83
2023/02/19 00:33:20;;;;;;;57.43;45.10;;;24.50;85.70;;;;;;1793898;78;21147;-82
2023/02/19 00:35:51;;;;;;;58.35;43.63;;;24.50;85.50;;;;;;1817507;79;21187;-82
2023/02/19 00:38:23;;;;;;;54.77;40.83;;;24.50;85.60;;;;;;1806944;78;21655;-82
2023/02/19 00:40:53;;;;;;;53.05;40.10;;;24.50;85.60;;;;;;1811574;79;21892;-82
2023/02/19 00:43:24;;;;;;;55.28;42.00;;;24.50;85.40;;;;;;1791509;80;22000;-81
2023/02/19 00:45:55;;;;;;;49.77;39.00;;;24.60;85.40;;;;;;1791299;80;21238;-82
2023/02/19 00:48:26;;;;;;;55.90;41.40;;;24.60;85.30;;;;;;1804543;79;21712;-83
2023/02/19 00:50:57;;;;;;;47.17;34.10;;;24.60;85.30;;;;;;1806713;78;21172;-83
2023/02/19 00:53:28;;;;;;;47.58;33.92;;;24.60;84.80;;;;;;1821015;79;21163;-84
2023/02/19 00:55:59;;;;;;;44.77;31.80;;;24.60;84.60;;;;;;1820935;79;21214;-83
2023/02/19 00:58:30;;;;;;;38.42;29.18;;;24.60;84.00;;;;;;1821152;79;21183;-82
2023/02/19 01:01:02;;;;;;;40.60;27.98;;;24.60;83.70;;;;;;1811155;79;21196;-83
2023/02/19 01:03:33;;;;;;;34.48;25.88;;;24.60;83.30;;;;;;1808306;79;21267;-83
2023/02/19 01:06:05;;;;;;;35.80;25.92;;;24.60;83.10;;;;;;1821573;79;21239;-83
2023/02/19 01:08:36;;;;;;;35.00;26.00;;;24.70;83.00;;;;;;1821051;79;21176;-82
2023/02/19 01:11:09;;;;;;;33.25;25.35;;;24.70;82.90;;;;;;1812959;79;21198;-82
2023/02/19 01:13:41;;;;;;;35.05;24.77;;;24.70;82.70;;;;;;1797189;79;21639;-82
2023/02/19 01:16:20;;;;;;;32.67;24.30;;;24.70;82.20;;;;;;1817039;78;21152;-83
2023/02/19 01:18:51;;;;;;;32.60;24.82;;;24.80;82.00;;;;;;1795695;79;21218;-82
2023/02/19 01:21:25;;;;;;;34.18;23.80;;;24.80;81.90;;;;;;1792635;78;21108;-81
2023/02/19 01:23:56;;;;;;;36.85;25.02;;;24.80;81.50;;;;;;1832960;77;21600;-83
2023/02/19 01:26:32;;;;;;;32.95;24.95;;;24.90;81.20;;;;;;1778140;80;21212;-83
2023/02/19 01:29:04;;;;;;;33.00;25.43;;;24.90;81.20;;;;;;1776990;79;21166;-85
2023/02/19 01:31:36;;;;;;;36.77;26.57;;;25.00;81.10;;;;;;1772313;79;21151;-83
2023/02/19 01:34:08;;;;;;;38.02;25.37;;;25.00;81.10;;;;;;1763451;79;21946;-83
2023/02/19 01:36:39;;;;;;;36.15;25.75;;;25.10;81.10;;;;;;1792066;79;21156;-82
2023/02/19 01:39:11;;;;;;;34.70;25.15;;;25.10;81.30;;;;;;1784550;79;21690;-82
2023/02/19 01:41:53;;;;;;;35.35;25.62;;;25.20;81.00;;;;;;1783191;78;21093;-83
2023/02/19 01:44:40;;;;;;;37.20;24.80;;;25.30;80.70;;;;;;1786235;79;21157;-83
2023/02/19 01:47:33;;;;;;;28.67;22.20;;;25.30;80.60;;;;;;1767929;79;21689;-84
2023/02/19 01:49:57;;;;;;;29.75;20.92;;;25.30;79.90;;;;;;1780175;79;22053;-83
2023/02/19 01:52:38;;;;;;;25.97;19.32;;;25.40;79.90;;;;;;1778260;79;21477;-82
2023/02/19 01:55:11;;;;;;;26.95;18.00;;;25.40;79.70;;;;;;1786671;79;21137;-83
2023/02/19 01:57:49;;;;;;;24.07;17.70;;;25.40;78.90;;;;;;1800447;79;21178;-82
2023/02/19 02:00:23;;;;;;;28.73;17.98;;;25.50;78.30;;;;;;1793366;79;21094;-81
2023/02/19 02:02:55;;;;;;;24.35;16.60;;;25.50;78.20;;;;;;1781003;79;21569;-83
2023/02/19 02:05:46;;;;;;;27.30;18.40;;;25.60;78.40;;;;;;1789178;79;21212;-82
2023/02/19 02:11:16;;;;;;;26.12;18.25;;;25.70;77.70;;;;;;1804322;79;21773;-82
2023/02/19 02:13:50;;;;;;;22.73;17.30;;;25.70;77.60;;;;;;1790818;79;21163;-82
2023/02/19 02:16:32;;;;;;;24.02;17.20;;;25.80;77.40;;;;;;1782453;79;22011;-83
2023/02/19 02:19:11;;;;;;;30.70;17.40;;;25.80;77.10;;;;;;1804065;79;21188;-81
2023/02/19 02:21:51;;;;;;;22.05;16.70;;;25.90;77.00;;;;;;1777936;79;21246;-83
2023/02/19 02:24:30;;;;;;;21.20;16.52;;;25.90;77.10;;;;;;1775980;79;21180;-82
2023/02/19 02:27:30;;;;;;;24.82;16.67;;;25.90;77.20;;;;;;1790702;79;21171;-82
2023/02/19 02:30:25;;;;;;;22.77;16.75;;;25.90;77.20;;;;;;1801596;78;21600;-81
2023/02/19 02:33:23;;;;;;;21.12;16.30;;;26.00;76.90;;;;;;1807395;78;21117;-82
2023/02/19 02:35:56;;;;;;;19.10;15.80;;;26.10;76.00;;;;;;1814280;77;21190;-82
2023/02/19 02:38:30;;;;;;;24.10;16.45;;;26.20;75.80;;;;;;1845460;77;21132;-80
2023/02/19 02:41:01;;;;;;;21.25;16.45;;;26.20;75.80;;;;;;1869576;76;21418;-80
2023/02/19 02:43:34;;;;;;;24.18;16.25;;;26.20;75.80;;;;;;1830028;77;21151;-82
2023/02/19 02:46:05;;;;;;;21.68;15.95;;;26.20;75.80;;;;;;1834006;77;21213;-81
2023/02/19 02:48:41;;;;;;;20.68;16.85;;;26.30;76.00;;;;;;1842802;77;21421;-81
2023/02/19 02:51:20;;;;;;;28.20;18.80;;;26.30;75.30;;;;;;1830746;77;22104;-81
2023/02/19 02:56:50;;;;;;;29.12;17.98;;;26.30;75.40;;;;;;1842596;76;21202;-81
2023/02/19 02:59:23;;;;;;;23.92;18.12;;;26.40;75.40;;;;;;1870988;76;21144;-84
2023/02/19 03:02:12;;;;;;;22.35;18.00;;;26.50;75.20;;;;;;1884056;76;21148;-79
2023/02/19 03:07:59;;;;;;;25.57;19.50;;;26.70;74.10;;;;;;1828008;77;21182;-80
2023/02/19 03:10:36;;;;;;;25.17;20.02;;;26.70;74.30;;;;;;1841094;77;22031;-80
2023/02/19 03:21:26;;;;;;;26.40;20.75;;;27.00;73.50;;;;;;1851755;77;21208;-76
2023/02/19 03:26:52;;;;;;;23.83;20.10;;;27.10;73.10;;;;;;1857289;76;21148;-78
2023/02/19 03:29:24;;;;;;;26.68;19.48;;;27.20;72.70;;;;;;1816690;77;21202;-77
2023/02/19 03:32:06;;;;;;;25.17;19.25;;;27.30;72.30;;;;;;1782702;80;21153;-78
2023/02/19 03:34:41;;;;;;;22.32;18.35;;;27.40;72.00;;;;;;1784615;78;21135;-78
2023/02/19 03:37:24;;;;;;;26.23;19.15;;;27.40;71.80;;;;;;1792107;79;21200;-77
2023/02/19 03:39:58;;;;;;;23.67;18.50;;;27.50;71.90;;;;;;1801620;79;21215;-79
2023/02/19 03:42:44;;;;;;;24.15;18.48;;;27.60;71.60;;;;;;1817469;78;21174;-78
2023/02/19 03:45:24;;;;;;;22.32;17.62;;;27.70;71.20;;;;;;1777753;79;21168;-78
2023/02/19 03:48:06;;;;;;;24.57;18.15;;;27.80;70.90;;;;;;1790975;79;21097;-77
2023/02/19 03:50:52;;;;;;;24.77;18.65;;;28.00;70.00;;;;;;1780398;78;21107;-78
2023/02/19 03:53:25;;;;;;;23.85;18.50;;;28.10;69.90;;;;;;1796684;79;21423;-79
2023/02/19 03:56:29;;;;;;;22.60;19.67;;;28.20;69.90;;;;;;1796244;79;21168;-78
2023/02/19 03:59:15;;;;;;;25.68;19.27;;;28.30;69.60;;;;;;1790880;78;21147;-78
2023/02/19 04:01:49;;;;;;;24.25;18.85;;;28.30;68.80;;;;;;1775444;81;21262;-78
2023/02/19 04:04:31;;;;;;;22.58;18.70;;;28.40;68.60;;;;;;1793298;79;21556;-82
2023/02/19 04:07:05;;;;;;;21.93;19.27;;;28.40;68.80;;;;;;1791376;78;21213;-82
2023/02/19 04:09:38;;;;;;;24.55;17.77;;;28.60;68.50;;;;;;1790998;78;21584;-77
2023/02/19 04:12:11;;;;;;;19.77;16.67;;;28.70;67.80;;;;;;1791936;78;21218;-76
2023/02/19 04:14:44;;;;;;;20.43;16.65;;;28.90;66.80;;;;;;1785365;79;21183;-77
2023/02/19 04:17:21;;;;;;;25.17;16.45;;;29.00;65.70;;;;;;1795672;79;21420;-77
2023/02/19 04:19:56;;;;;;;21.12;16.00;;;29.20;65.50;;;;;;1806215;79;21197;-77
2023/02/19 04:22:26;;;;;;;21.15;15.53;;;29.30;64.40;;;;;;1807673;79;21143;-77
2023/02/19 04:24:57;;;;;;;19.62;16.07;;;29.40;63.40;;;;;;1800849;79;21561;-77
2023/02/19 04:27:29;;;;;;;21.10;15.80;;;29.50;63.70;;;;;;1806776;79;21456;-77
2023/02/19 04:30:05;;;;;;;23.55;15.32;;;29.60;63.10;;;;;;1774788;79;21386;-78
2023/02/19 04:32:36;;;;;;;;;;;29.60;63.60;;;;;;1803766;78;21919;-78
2023/02/19 04:35:07;;;;;;;20.90;15.40;;;29.80;63.30;;;;;;1793973;79;20585;-78
2023/02/19 04:37:39;;;;;;;19.95;14.85;;;29.80;61.90;;;;;;1805766;79;21076;-75
2023/02/19 04:40:11;;;;;;;18.82;15.23;;;30.00;61.60;;;;;;1798468;79;21196;-77
2023/02/19 04:42:42;;;;;;;16.95;14.10;;;30.00;61.50;;;;;;1793076;78;21377;-77
2023/02/19 04:45:13;;;;;;;16.40;13.90;;;30.10;61.30;;;;;;1800389;79;21152;-77
2023/02/19 04:47:45;;;;;;;16.70;14.38;;;30.10;60.90;;;;;;1790311;78;21223;-78
2023/02/19 04:50:22;;;;;;;18.40;14.30;;;30.20;60.70;;;;;;1773183;79;21231;-79
2023/02/19 04:52:52;;;;;;;17.65;15.15;;;30.20;59.70;;;;;;1798978;79;21698;-79
2023/02/19 04:55:24;;;;;;;16.12;13.25;;;30.30;59.30;;;;;;1795605;79;21403;-78
2023/02/19 04:57:55;;;;;;;19.57;14.25;;;30.40;59.40;;;;;;1779351;79;21145;-78
2023/02/19 05:00:26;;;;;;;17.70;13.48;;;30.50;59.30;;;;;;1793588;78;21125;-79
2023/02/19 05:03:02;;;;;;;16.40;13.97;;;30.60;59.00;;;;;;1789409;78;21157;-80
2023/02/19 05:05:34;;;;;;;16.52;13.83;;;30.70;57.60;;;;;;1791703;79;21074;-76
2023/02/19 05:08:07;;;;;;;17.32;14.45;;;30.70;57.50;;;;;;1809165;78;21087;-77
2023/02/19 05:10:39;;;;;;;19.37;15.03;;;30.80;57.60;;;;;;1777907;81;21171;-76
2023/02/19 05:13:10;;;;;;;15.98;13.68;;;30.80;57.40;;;;;;1801854;79;21101;-76
2023/02/19 05:15:42;;;;;;;20.45;13.95;;;30.90;57.40;;;;;;1783568;79;21203;-79
2023/02/19 05:18:17;;;;;;;18.48;14.18;;;30.90;57.30;;;;;;1790449;79;21080;-77
2023/02/19 05:20:48;;;;;;;22.87;14.25;;;31.50;57.50;;;;;;1794242;79;21821;-77
2023/02/19 05:23:21;;;;;;;22.17;15.53;;;31.00;56.90;;;;;;1802773;78;21165;-78
2023/02/19 05:25:53;;;;;;;17.17;14.98;;;29.90;56.40;;;;;;1799244;79;21182;-78
2023/02/19 05:28:28;;;;;;;17.70;14.90;;;31.00;57.10;;;;;;1801163;77;21211;-79
2023/02/19 05:31:01;;;;;;;19.55;14.68;;;31.00;57.30;;;;;;1804485;78;21153;-78
2023/02/19 05:33:36;;;;;;;16.67;14.78;;;31.10;57.00;;;;;;1818863;76;21145;-78
2023/02/19 05:36:09;;;;;;;16.65;14.85;;;31.10;57.60;;;;;;1834417;77;21062;-77
2023/02/19 05:38:42;;;;;;;17.10;14.55;;;31.10;61.80;;;;;;1831802;78;21086;-77
2023/02/19 05:41:17;;;;;;;18.15;14.07;;;31.20;62.10;;;;;;1835707;77;21145;-79
2023/02/19 05:43:50;;;;;;;17.98;13.60;;;31.20;61.90;;;;;;1813899;78;21421;-78
2023/02/19 05:46:24;;;;;;;18.25;14.10;;;31.30;62.20;;;;;;1827992;76;21122;-78
2023/02/19 05:48:55;;;;;;;17.25;14.35;;;31.30;61.20;;;;;;1848174;77;21464;-77
2023/02/19 05:51:27;;;;;;;16.95;14.15;;;31.30;63.80;;;;;;1808831;77;21286;-77
2023/02/19 05:53:59;;;;;;;17.82;14.55;;;31.30;68.00;;;;;;1831440;78;21066;-77
2023/02/19 05:56:39;;;;;;;19.70;15.32;;;31.40;66.00;;;;;;1795112;79;21182;-78
2023/02/19 05:59:19;;;;;;;15.93;14.25;;;31.30;66.40;;;;;;1804613;79;21704;-77
2023/02/19 06:02:00;;;;;;;17.25;14.58;;;31.30;57.00;;;;;;1802582;77;21228;-77
2023/02/19 06:04:32;;;;;;;15.85;14.18;;;31.00;62.60;;;;;;1813314;76;21251;-77
2023/02/19 06:07:03;;;;;;;16.57;13.22;;;31.30;69.70;;;;;;1817710;76;21287;-78
2023/02/19 06:09:38;;;;;;;18.40;14.00;;;31.40;57.40;;;;;;1810317;77;21309;-78
2023/02/19 06:12:19;;;;;;;21.52;14.55;;;31.50;57.20;;;;;;1811947;77;21069;-78
2023/02/19 06:14:50;;;;;;;17.45;13.98;;;31.50;57.30;;;;;;1869649;76;21099;-77
2023/02/19 06:17:22;;;;;;;16.17;13.48;;;31.50;56.90;;;;;;1845020;76;21222;-77
2023/02/19 06:19:53;;;;;;;16.85;13.83;;;31.60;56.30;;;;;;1847650;77;21150;-78
2023/02/19 06:22:31;;;;;;;15.95;14.25;;;31.60;56.10;;;;;;1852154;77;21157;-78
2023/02/19 06:25:03;;;;;;;20.27;14.33;;;31.60;56.30;;;;;;1850729;76;21243;-79
2023/02/19 06:27:36;;;;;;;16.52;13.90;;;31.60;55.90;;;;;;1850975;76;21584;-78
2023/02/19 06:30:08;;;;;;;14.70;13.18;;;31.60;56.10;;;;;;1840412;76;21325;-77
2023/02/19 06:32:40;;;;;;;15.10;13.50;;;31.70;56.00;;;;;;1787695;79;21130;-79
2023/02/19 06:35:11;;;;;;;16.67;13.62;;;31.70;56.30;;;;;;1792431;79;21184;-77
2023/02/19 06:37:42;;;;;;;16.50;13.28;;;31.70;56.30;;;;;;1791285;78;21219;-78
2023/02/19 06:40:14;;;;;;;15.78;13.68;;;31.70;55.90;;;;;;1785320;79;21145;-77
2023/02/19 06:42:46;;;;;;;15.85;13.48;;;31.60;56.20;;;;;;1804203;79;21588;-76
2023/02/19 06:45:17;;;;;;;15.78;13.05;;;31.70;56.00;;;;;;1775290;79;21691;-77
2023/02/19 06:47:52;;;;;;;15.53;13.62;;;31.70;56.70;;;;;;1782147;79;21161;-78
2023/02/19 06:50:24;;;;;;;15.15;13.40;;;31.70;56.00;;;;;;1757530;79;21206;-76
2023/02/19 06:52:55;;;;;;;15.40;12.73;;;31.80;55.60;;;;;;1841105;77;21211;-76
2023/02/19 06:55:26;;;;;;;14.35;12.80;;;31.80;55.90;;;;;;1785963;79;21515;-76
2023/02/19 06:57:57;;;;;;;17.67;12.37;;;31.70;55.50;;;;;;1799460;79;21590;-78
2023/02/19 07:00:28;;;;;;;16.57;13.32;;;31.70;55.50;;;;;;1803713;78;21416;-77
2023/02/19 07:02:59;;;;;;;16.37;13.18;;;31.70;55.80;;;;;;1805694;78;21251;-77
2023/02/19 07:05:32;;;;;;;14.13;12.40;;;31.70;55.20;;;;;;1800480;78;21113;-77
2023/02/19 07:08:03;;;;;;;15.98;13.20;;;31.70;54.80;;;;;;1774372;81;21153;-77
2023/02/19 07:10:34;;;;;;;15.53;13.40;;;31.80;55.30;;;;;;1790933;78;21223;-77
2023/02/19 07:13:05;;;;;;;16.23;13.13;;;31.80;55.00;;;;;;1793805;78;21266;-78
2023/02/19 07:15:37;;;;;;;13.65;12.07;;;31.90;55.30;;;;;;1782951;79;21208;-77
2023/02/19 07:18:09;;;;;;;14.28;12.53;;;31.90;55.40;;;;;;1767710;81;21521;-77
2023/02/19 07:20:40;;;;;;;14.55;12.07;;;31.90;55.20;;;;;;1789845;78;21197;-77
2023/02/19 07:23:11;;;;;;;17.45;12.28;;;31.90;54.90;;;;;;1785939;79;21144;-77
2023/02/19 07:25:43;;;;;;;14.30;11.65;;;31.80;55.40;;;;;;1803250;79;21856;-76
2023/02/19 07:28:15;;;;;;;13.62;12.23;;;31.80;55.30;;;;;;1803127;79;21393;-76
2023/02/19 07:30:46;;;;;;;15.32;12.47;;;31.70;55.30;;;;;;1786972;79;21174;-77
2023/02/19 07:33:18;;;;;;;15.58;12.78;;;31.70;55.00;;;;;;1786182;79;21143;-77
2023/02/19 07:35:50;;;;;;;16.15;12.47;;;31.70;55.40;;;;;;1799551;79;21441;-77
2023/02/19 07:38:22;;;;;;;15.98;12.78;;;31.70;54.80;;;;;;1820648;78;21223;-77
2023/02/19 07:40:57;;;;;;;14.73;12.63;;;31.70;54.60;;;;;;1812341;79;21856;-76
2023/02/19 07:43:30;;;;;;;14.60;12.18;;;31.60;54.90;;;;;;1811041;77;21207;-77
2023/02/19 07:46:10;;;;;;;16.12;12.33;;;31.60;55.40;;;;;;1813000;79;21238;-77
2023/02/19 07:48:43;;;;;;;18.55;12.47;;;31.70;55.10;;;;;;1812438;79;21176;-77
2023/02/19 07:51:17;;;;;;;16.87;11.53;;;31.60;54.60;;;;;;1797098;78;21898;-76
2023/02/19 07:56:41;;;;;;;16.27;11.73;;;31.60;54.70;;;;;;1850712;77;21214;-76
2023/02/19 07:59:12;;;;;;;14.23;11.57;;;31.50;55.10;;;;;;1905765;75;21111;-75
2023/02/19 08:04:32;;;;;;;14.58;12.30;;;31.50;54.90;;;;;;1914325;73;21196;-76
2023/02/19 08:07:04;;;;;;;14.18;11.53;;;31.50;55.00;;;;;;1954302;73;21055;-75
2023/02/19 08:09:35;;;;;;;13.83;11.43;;;31.40;54.70;;;;;;1915035;73;21227;-76
2023/02/19 08:14:56;;;;;;;14.63;11.38;;;31.40;55.10;;;;;;1932651;73;21067;-75
2023/02/19 08:17:29;;;;;;;15.50;11.18;;;31.40;55.10;;;;;;1939786;73;21898;-75
2023/02/19 08:20:00;;;;;;;12.95;11.12;;;31.30;55.50;;;;;;1928623;73;21212;-76
2023/02/19 08:22:31;;;;;;;12.65;10.80;;;31.30;54.80;;;;;;1912048;75;21105;-76
2023/02/19 08:25:08;;;;;;;12.30;11.00;;;31.30;55.00;;;;;;1918812;75;21063;-76
2023/02/19 08:27:40;;;;;;;14.10;12.18;;;31.30;55.00;;;;;;1920722;73;21146;-77
2023/02/19 08:30:12;;;;;;;15.35;11.12;;;31.40;54.90;;;;;;1920838;73;21140;-77
2023/02/19 08:32:44;;;;;;;15.55;11.10;;;31.30;54.90;;;;;;1900642;75;21173;-77
2023/02/19 08:35:15;;;;;;;13.15;10.98;;;31.30;55.80;;;;;;1887046;75;21340;-76
2023/02/19 08:37:46;;;;;;;16.15;11.20;;;31.30;54.70;;;;;;1885512;75;21134;-76
2023/02/19 08:40:17;;;;;;;17.57;11.85;;;31.30;54.60;;;;;;1911076;75;21161;-75
2023/02/19 08:42:49;;;;;;;13.00;10.65;;;31.30;54.40;;;;;;1894393;73;21121;-75
2023/02/19 08:45:23;;;;;;;11.97;10.50;;;31.30;54.70;;;;;;1891860;75;21984;-75
2023/02/19 08:47:53;;;;;;;14.47;10.93;;;31.40;55.00;;;;;;1902052;75;21187;-75
2023/02/19 08:50:31;;;;;;;14.25;10.08;;;31.30;54.40;;;;;;1915840;75;21618;-75
2023/02/19 08:53:03;;;;;;;13.05;10.23;;;31.30;54.40;;;;;;1915938;75;21136;-78
2023/02/19 08:55:34;;;;;;;12.45;10.68;;;31.30;54.80;;;;;;1908939;73;21121;-76
2023/02/19 08:58:05;;;;;;;15.20;10.95;;;31.30;55.00;;;;;;1916152;74;21872;-76
2023/02/19 09:00:37;;;;;;;14.50;11.25;;;31.40;54.00;;;;;;1911297;75;21180;-77
2023/02/19 09:03:08;;;;;;;13.83;11.05;;;31.40;54.30;;;;;;1897833;75;21900;-76
2023/02/19 09:05:40;;;;;;;15.85;11.08;;;31.30;54.20;;;;;;1897848;73;21082;-76
2023/02/19 09:08:11;;;;;;;17.07;12.43;;;31.30;54.30;;;;;;1904358;75;21185;-75
2023/02/19 09:10:43;;;;;;;14.45;10.85;;;31.20;54.60;;;;;;1917328;74;21111;-76
2023/02/19 09:13:14;;;;;;;14.18;11.25;;;31.20;54.90;;;;;;1916985;75;21149;-76
2023/02/19 09:15:45;;;;;;;15.90;11.88;;;31.10;55.30;;;;;;1914737;75;21100;-76
2023/02/19 09:18:17;;;;;;;13.85;10.98;;;31.00;55.40;;;;;;1915215;75;21098;-76
2023/02/19 09:20:49;;;;;;;13.58;10.82;;;31.00;55.70;;;;;;1914864;75;21216;-76
2023/02/19 09:23:21;;;;;;;17.82;11.20;;;31.00;55.90;;;;;;1913434;75;21114;-76
2023/02/19 09:25:59;;;;;;;12.88;10.80;;;31.00;55.80;;;;;;1892988;75;21122;-77
2023/02/19 09:28:32;;;;;;;12.43;10.68;;;31.00;55.60;;;;;;1918403;73;21476;-76
2023/02/19 09:31:07;;;;;;;16.12;11.03;;;31.10;55.70;;;;;;1910571;73;21239;-78
2023/02/19 09:33:40;;;;;;;13.90;10.45;;;31.10;55.40;;;;;;1887529;73;21166;-76
2023/02/19 09:36:13;;;;;;;14.80;10.65;;;31.10;55.90;;;;;;1919592;75;21063;-75
2023/02/19 09:38:45;;;;;;;11.45;9.88;;;31.10;56.00;;;;;;1920556;73;21588;-77
2023/02/19 09:41:29;;;;;;;17.25;10.70;;;31.00;56.00;;;;;;1923758;73;21185;-77
2023/02/19 09:44:02;;;;;;;12.25;10.78;;;31.10;56.40;;;;;;1919385;73;21550;-77
2023/02/19 09:46:48;;;;;;;14.60;10.68;;;31.10;56.20;;;;;;1908632;73;21411;-76
2023/02/19 09:49:24;;;;;;;12.73;11.08;;;31.10;56.30;;;;;;1907398;75;21116;-76
2023/02/19 09:52:10;;;;;;;14.28;10.82;;;31.00;56.50;;;;;;1915575;73;21679;-77
2023/02/19 09:54:46;;;;;;;19.12;10.93;;;31.00;56.90;;;;;;1896926;73;21865;-76
2023/02/19 09:57:21;;;;;;;12.40;10.63;;;30.90;57.20;;;;;;1916628;73;21134;-76
2023/02/19 10:00:15;;;;;;;14.07;10.55;;;30.80;57.20;;;;;;1914701;73;21137;-75
2023/02/19 10:02:46;;;;;;;17.73;10.88;;;30.80;57.30;;;;;;1908424;73;21112;-77
2023/02/19 10:05:18;;;;;;;15.13;11.55;;;30.80;57.60;;;;;;1895722;73;21118;-74
2023/02/19 10:07:51;;;;;;;15.03;13.08;;;30.70;57.60;;;;;;1913685;73;21134;-76
2023/02/19 10:10:34;;;;;;;20.37;13.18;;;30.70;57.30;;;;;;1924606;73;21169;-76
2023/02/19 10:13:23;;;;;;;22.13;12.53;;;30.70;57.20;;;;;;1907924;73;21126;-76
2023/02/19 10:15:57;;;;;;;16.75;11.95;;;30.70;57.40;;;;;;1902336;75;21130;-77
2023/02/19 10:18:31;;;;;;;16.37;12.63;;;30.60;57.50;;;;;;1920070;73;21778;-75
2023/02/19 10:21:02;;;;;;;15.32;11.53;;;30.60;57.60;;;;;;1925779;73;21177;-76
2023/02/19 10:23:37;;;;;;;12.82;10.93;;;30.60;58.00;;;;;;1949320;73;21114;-88
2023/02/19 10:26:09;;;;;;;14.55;11.73;;;30.50;58.10;;;;;;1949277;74;21122;-84
2023/02/19 10:28:44;;;;;;;12.85;10.90;;;30.50;58.30;;;;;;1906918;73;21122;-86
2023/02/19 10:31:29;;;;;;;15.70;11.28;;;30.50;58.40;;;;;;1916804;75;21115;-86
2023/02/19 10:34:05;;;;;;;14.03;11.10;;;30.40;58.60;;;;;;1903730;75;21099;-85
2023/02/19 10:36:39;;;;;;;15.30;11.38;;;30.40;58.80;;;;;;1924972;73;21203;-86
2023/02/19 10:39:24;;;;;;;14.18;11.35;;;30.30;59.10;;;;;;1916807;73;21178;-86
2023/02/19 10:42:05;;;;;;;13.62;10.10;;;30.30;59.50;;;;;;1908346;73;21195;-84
2023/02/19 10:44:35;;;;;;;15.32;10.32;;;30.20;59.50;;;;;;1934036;73;21075;-85
2023/02/19 10:47:07;;;;;;;17.10;11.28;;;30.20;59.70;;;;;;1920532;75;21075;-85
2023/02/19 10:49:42;;;;;;;15.30;10.23;;;30.20;60.60;;;;;;1917103;73;21180;-85
2023/02/19 10:52:30;;;;;;;17.73;11.65;;;30.20;61.60;;;;;;1912432;73;21129;-85
2023/02/19 10:55:22;;;;;;;14.73;11.22;;;30.10;62.30;;;;;;1866637;76;21142;-85
2023/02/19 10:57:53;;;;;;;15.90;10.63;;;30.10;62.90;;;;;;1877374;74;21237;-86
2023/02/19 11:00:30;;;;;;;14.58;10.60;;;30.00;63.60;;;;;;1908182;74;21164;-86
2023/02/19 11:03:22;;;;;;;14.93;10.13;;;30.00;63.80;;;;;;1917103;74;21138;-85
2023/02/19 11:06:02;;;;;;;17.10;10.75;;;29.90;65.60;;;;;;1890816;76;21204;-85
2023/02/19 11:08:46;;;;;;;17.77;10.53;;;29.80;65.20;;;;;;1920654;74;21051;-85
2023/02/19 11:11:29;;;;;;;15.50;10.00;;;29.80;65.00;;;;;;1922628;74;21177;-85
2023/02/19 11:14:04;;;;;;;15.93;10.78;;;29.70;65.80;;;;;;1890567;73;21137;-86
2023/02/19 11:16:43;;;;;;;13.10;9.90;;;29.70;66.00;;;;;;1867521;75;21118;-85
2023/02/19 11:19:31;;;;;;;13.70;9.38;;;29.60;65.60;;;;;;1952391;73;21112;-85
2023/02/19 11:22:03;;;;;;;12.25;9.45;;;29.60;65.20;;;;;;1951990;73;21361;-87
2023/02/19 11:24:39;;;;;;;13.72;8.80;;;29.50;65.10;;;;;;1899355;75;21118;-86
2023/02/19 11:27:21;;;;;;;13.15;9.45;;;29.50;64.60;;;;;;1901617;73;21166;-85
2023/02/19 11:29:52;;;;;;;15.10;9.05;;;29.50;64.20;;;;;;1858955;76;21278;-86
2023/02/19 11:32:26;;;;;;;13.55;8.80;;;29.40;64.00;;;;;;1904713;74;21601;-84
2023/02/19 11:35:21;;;;;;;15.32;9.60;;;29.40;63.90;;;;;;1864044;75;21154;-85
2023/02/19 11:38:02;;;;;;;19.17;8.90;;;29.40;64.30;;;;;;1851659;77;21188;-86
2023/02/19 11:40:34;;;;;;;17.80;9.60;;;29.40;65.00;;;;;;1891698;74;21503;-86
2023/02/19 11:43:30;;;;;;;13.27;8.93;;;29.30;65.80;;;;;;1832195;77;21237;-85
2023/02/19 11:46:15;;;;;;;11.97;7.90;;;29.30;65.50;;;;;;1865753;75;21211;-84
2023/02/19 11:48:54;;;;;;;17.85;8.35;;;29.20;64.80;;;;;;1833002;77;21133;-84
2023/02/19 11:51:48;;;;;;;12.60;7.42;;;29.20;64.40;;;;;;1879234;74;21141;-84
2023/02/19 11:54:44;;;;;;;14.83;7.37;;;29.20;64.40;;;;;;1894957;74;21676;-85
2023/02/19 11:57:24;;;;;;;10.60;6.65;;;29.10;64.10;;;;;;1919038;74;21138;-85
2023/02/19 12:00:03;;;;;;;9.78;6.90;;;29.00;63.90;;;;;;1917405;74;21170;-84
2023/02/19 12:02:43;;;;;;;10.82;6.42;;;29.00;63.90;;;;;;1902571;75;21145;-85
2023/02/19 12:05:28;;;;;;;8.75;6.33;;;28.90;64.00;;;;;;1853249;77;21126;-83
2023/02/19 12:08:01;;;;;;;11.25;6.60;;;28.90;63.80;;;;;;1853488;77;21881;-85
2023/02/19 12:10:53;;;;;;;13.43;6.40;;;28.90;63.80;;;;;;1853196;77;21153;-84
2023/02/19 12:13:30;;;;;;;10.38;6.40;;;28.90;63.80;;;;;;1843691;77;21144;-85
2023/02/19 12:16:24;;;;;;;13.53;6.00;;;28.80;63.80;;;;;;1883483;74;21126;-85
2023/02/19 12:19:18;;;;;;;9.75;6.20;;;28.80;63.80;;;;;;1848206;77;21855;-85
2023/02/19 12:22:05;;;;;;;10.08;6.60;;;28.70;63.90;;;;;;1884768;75;21864;-84
2023/02/19 12:25:03;;;;;;;11.12;6.85;;;28.70;64.00;;;;;;1857974;76;21199;-85
2023/02/19 12:27:55;;;;;;;19.10;7.50;;;28.70;64.30;;;;;;1847958;77;21201;-86
2023/02/19 12:30:31;;;;;;;14.25;7.10;;;28.60;64.00;;;;;;1869888;76;21122;-85
2023/02/19 12:33:24;;;;;;;22.40;8.10;;;28.60;64.10;;;;;;1848604;77;21156;-84
2023/02/19 12:36:16;;;;;;;9.55;7.03;;;28.50;64.00;;;;;;1853548;77;21138;-85
2023/02/19 12:39:09;;;;;;;12.45;7.08;;;28.50;64.10;;;;;;1873700;76;21165;-85
2023/02/19 12:41:42;;;;;;;12.00;7.62;;;28.50;64.20;;;;;;1854688;75;21134;-85
2023/02/19 12:44:18;;;;;;;11.65;7.10;;;28.40;64.20;;;;;;1856591;76;21242;-85
2023/02/19 12:46:54;;;;;;;10.65;7.28;;;28.40;64.30;;;;;;1918207;75;21078;-86
2023/02/19 12:49:33;;;;;;;11.73;7.08;;;28.40;64.40;;;;;;1917047;75;21899;-86
2023/02/19 12:52:12;;;;;;;12.13;7.35;;;28.30;64.40;;;;;;1892767;75;21098;-87
2023/02/19 12:54:46;;;;;;;12.13;6.92;;;28.30;64.40;;;;;;1901801;75;21168;-85
2023/02/19 12:57:19;;;;;;;10.18;7.72;;;28.30;64.40;;;;;;1884026;75;21145;-85
2023/02/19 12:59:55;;;;;;;16.00;8.63;;;28.30;64.60;;;;;;1884051;76;21998;-86
2023/02/19 13:02:50;;;;;;;12.23;7.80;;;28.20;64.60;;;;;;1884637;76;21215;-87
2023/02/19 13:05:42;;;;;;;12.05;8.25;;;28.20;64.60;;;;;;1862254;75;21118;-85
2023/02/19 13:08:15;;;;;;;12.15;7.45;;;28.20;64.80;;;;;;1885225;75;21423;-84
2023/02/19 13:10:54;;;;;;;10.80;8.30;;;28.20;65.00;;;;;;1895434;75;21449;-85
2023/02/19 13:13:29;;;;;;;10.72;7.50;;;28.10;65.10;;;;;;1884682;76;21159;-84
2023/02/19 13:16:08;;;;;;;11.73;7.60;;;28.10;65.10;;;;;;1886395;76;21126;-84
2023/02/19 13:18:51;;;;;;;14.73;7.53;;;28.10;65.30;;;;;;1868495;75;21605;-84
2023/02/19 13:24:32;;;;;;;;;;;;;;;;;;;;;
2023/02/19 13:27:16;;;;;;;9.23;7.67;;;28.00;67.60;;;;;;1886315;74;21141;-84
2023/02/19 13:30:10;;;;;;;18.25;7.75;;;28.00;69.10;;;;;;1869627;76;21105;-84
2023/02/19 13:32:53;;;;;;;9.83;7.00;;;28.00;69.50;;;;;;1884525;76;21154;-85
2023/02/19 13:35:53;;;;;;;12.43;7.75;;;27.90;65.20;;;;;;1892443;75;21165;-84
2023/02/19 13:38:26;;;;;;;11.08;7.20;;;27.90;65.30;;;;;;1894283;75;21195;-84
2023/02/19 13:40:59;;;;;;;10.90;7.10;;;27.80;65.10;;;;;;1899419;75;21188;-84
2023/02/19 13:43:41;;;;;;;10.15;7.40;;;27.80;64.20;;;;;;1881363;75;21134;-83
2023/02/19 13:46:16;;;;;;;10.63;6.37;;;27.80;65.60;;;;;;1886013;76;21110;-83